Universal City, Texas
Current Conditions -  °F | °C
As of 2:58 AM on Wednesday 22 Oct 2014 (Local Time) from KRND Reporting Station
Clear Clear  
Wind Chill: 62°   Ceiling: Unl
Heat Index: 62°   Visibility: 10mi
Dew Point: 50°   Wind: 5mph
Humidity: 64%   Direction: 330°NNW
Pressure: 30.05"   Gusts: NA
Location:  29.56°N, 98.31°W
Report Text: KRND 220758Z AUTO 33004KT 10SM CLR 17/10 A3005 RMK AO2 SLP169 T01660098
Loading
Personal Weather Stations






























Interactive Weather Map
Tropical Storm Tracking
New forecast layout! Learn more

10-Day Weather Forecast

Advertisements
Track Severe Weather on mobile